sensor_id;sensor_type;location;lat;lon;timestamp;pressure;altitude;pressure_sealevel;temperature;humidity
75136;BME280;63707;52.212;9.540;2023-05-06T00:01:02;100082.00;;;11.26;100.00
75136;BME280;63707;52.212;9.540;2023-05-06T00:03:27;100082.63;;;11.22;100.00
75136;BME280;63707;52.212;9.540;2023-05-06T00:05:53;100089.13;;;11.21;100.00
75136;BME280;63707;52.212;9.540;2023-05-06T00:08:20;100085.56;;;11.20;100.00
75136;BME280;63707;52.212;9.540;2023-05-06T00:10:46;100085.56;;;11.20;100.00
75136;BME280;63707;52.212;9.540;2023-05-06T00:13:12;100082.22;;;11.18;100.00
75136;BME280;63707;52.212;9.540;2023-05-06T00:15:38;100085.78;;;11.12;100.00
75136;BME280;63707;52.212;9.540;2023-05-06T00:18:04;100084.94;;;11.18;100.00
75136;BME280;63707;52.212;9.540;2023-05-06T00:20:30;100080.75;;;11.16;100.00
75136;BME280;63707;52.212;9.540;2023-05-06T00:22:56;100091.25;;;11.12;100.00
75136;BME280;63707;52.212;9.540;2023-05-06T00:25:23;100084.94;;;11.05;100.00
75136;BME280;63707;52.212;9.540;2023-05-06T00:27:48;100085.56;;;11.14;100.00
75136;BME280;63707;52.212;9.540;2023-05-06T00:30:14;100087.25;;;11.08;100.00
75136;BME280;63707;52.212;9.540;2023-05-06T00:32:39;100098.16;;;11.01;100.00
75136;BME280;63707;52.212;9.540;2023-05-06T00:35:06;100097.31;;;11.01;100.00
75136;BME280;63707;52.212;9.540;2023-05-06T00:37:31;100093.75;;;11.00;100.00
75136;BME280;63707;52.212;9.540;2023-05-06T00:39:57;100089.97;;;11.01;100.00
75136;BME280;63707;52.212;9.540;2023-05-06T00:42:24;100102.78;;;11.08;100.00
75136;BME280;63707;52.212;9.540;2023-05-06T00:44:50;100096.69;;;11.06;100.00
75136;BME280;63707;52.212;9.540;2023-05-06T00:47:17;100100.25;;;10.99;100.00
75136;BME280;63707;52.212;9.540;2023-05-06T00:49:43;100102.72;;;10.88;100.00
75136;BME280;63707;52.212;9.540;2023-05-06T00:52:10;100099.00;;;11.02;100.00
75136;BME280;63707;52.212;9.540;2023-05-06T00:54:36;100101.69;;;10.82;100.00
75136;BME280;63707;52.212;9.540;2023-05-06T00:57:01;100099.16;;;10.87;100.00
75136;BME280;63707;52.212;9.540;2023-05-06T00:59:29;100105.91;;;10.91;100.00
75136;BME280;63707;52.212;9.540;2023-05-06T01:01:54;100109.22;;;10.87;100.00
75136;BME280;63707;52.212;9.540;2023-05-06T01:04:20;100097.72;;;10.91;100.00
75136;BME280;63707;52.212;9.540;2023-05-06T01:06:50;100099.38;;;10.79;100.00
75136;BME280;63707;52.212;9.540;2023-05-06T01:09:24;100103.81;;;10.93;100.00
75136;BME280;63707;52.212;9.540;2023-05-06T01:11:55;100096.25;;;10.89;100.00
75136;BME280;63707;52.212;9.540;2023-05-06T01:14:31;100092.28;;;10.91;100.00
75136;BME280;63707;52.212;9.540;2023-05-06T01:17:01;100090.97;;;10.81;100.00
75136;BME280;63707;52.212;9.540;2023-05-06T01:19:35;100094.53;;;10.75;100.00
75136;BME280;63707;52.212;9.540;2023-05-06T01:22:04;100098.94;;;10.69;100.00
75136;BME280;63707;52.212;9.540;2023-05-06T01:24:38;100097.66;;;10.65;100.00
75136;BME280;63707;52.212;9.540;2023-05-06T01:27:04;100095.97;;;10.64;100.00
75136;BME280;63707;52.212;9.540;2023-05-06T01:29:30;100094.72;;;10.60;100.00
75136;BME280;63707;52.212;9.540;2023-05-06T01:32:01;100094.50;;;10.61;100.00
75136;BME280;63707;52.212;9.540;2023-05-06T01:34:33;100099.31;;;10.59;100.00
75136;BME280;63707;52.212;9.540;2023-05-06T01:37:07;100099.13;;;10.61;100.00
75136;BME280;63707;52.212;9.540;2023-05-06T01:39:38;100103.94;;;10.59;100.00
75136;BME280;63707;52.212;9.540;2023-05-06T01:42:07;100097.03;;;10.63;100.00
75136;BME280;63707;52.212;9.540;2023-05-06T01:44:35;100096.19;;;10.56;100.00
75136;BME280;63707;52.212;9.540;2023-05-06T01:47:01;100104.16;;;10.57;100.00
75136;BME280;63707;52.212;9.540;2023-05-06T01:49:28;100103.72;;;10.60;100.00
75136;BME280;63707;52.212;9.540;2023-05-06T01:51:54;100106.88;;;10.64;100.00
75136;BME280;63707;52.212;9.540;2023-05-06T01:54:20;100109.16;;;10.54;100.00
75136;BME280;63707;52.212;9.540;2023-05-06T01:56:47;100103.09;;;10.52;100.00
75136;BME280;63707;52.212;9.540;2023-05-06T01:59:13;100106.44;;;10.54;100.00
75136;BME280;63707;52.212;9.540;2023-05-06T02:01:38;100109.38;;;10.52;100.00
75136;BME280;63707;52.212;9.540;2023-05-06T02:04:04;100109.16;;;10.47;100.00
75136;BME280;63707;52.212;9.540;2023-05-06T02:06:29;100108.66;;;10.37;100.00
75136;BME280;63707;52.212;9.540;2023-05-06T02:08:56;100101.31;;;10.31;100.00
75136;BME280;63707;52.212;9.540;2023-05-06T02:11:22;100107.16;;;10.28;100.00
75136;BME280;63707;52.212;9.540;2023-05-06T02:13:48;100112.19;;;10.24;100.00
75136;BME280;63707;52.212;9.540;2023-05-06T02:16:14;100106.72;;;10.24;100.00
75136;BME280;63707;52.212;9.540;2023-05-06T02:18:39;100109.66;;;10.23;100.00
75136;BME280;63707;52.212;9.540;2023-05-06T02:21:06;100115.31;;;10.21;100.00
75136;BME280;63707;52.212;9.540;2023-05-06T02:23:32;100110.03;;;10.20;100.00
75136;BME280;63707;52.212;9.540;2023-05-06T02:25:57;100113.63;;;10.20;100.00
75136;BME280;63707;52.212;9.540;2023-05-06T02:28:23;100108.97;;;10.14;100.00
75136;BME280;63707;52.212;9.540;2023-05-06T02:30:53;100100.78;;;10.07;100.00
75136;BME280;63707;52.212;9.540;2023-05-06T02:33:19;100097.81;;;10.02;100.00
75136;BME280;63707;52.212;9.540;2023-05-06T02:35:46;100096.75;;;9.97;100.00
75136;BME280;63707;52.212;9.540;2023-05-06T02:38:11;100092.88;;;9.85;100.00
75136;BME280;63707;52.212;9.540;2023-05-06T02:40:37;100096.44;;;9.85;100.00
75136;BME280;63707;52.212;9.540;2023-05-06T02:43:02;100098.72;;;9.82;100.00
75136;BME280;63707;52.212;9.540;2023-05-06T02:45:27;100091.38;;;9.75;100.00
75136;BME280;63707;52.212;9.540;2023-05-06T02:47:55;100090.50;;;9.68;100.00
75136;BME280;63707;52.212;9.540;2023-05-06T02:50:20;100091.53;;;9.67;100.00
75136;BME280;63707;52.212;9.540;2023-05-06T02:52:46;100089.22;;;9.64;100.00
75136;BME280;63707;52.212;9.540;2023-05-06T02:55:11;100098.41;;;9.63;100.00
75136;BME280;63707;52.212;9.540;2023-05-06T02:57:36;100092.50;;;9.53;100.00
75136;BME280;63707;52.212;9.540;2023-05-06T03:00:03;100088.50;;;9.49;100.00
75136;BME280;63707;52.212;9.540;2023-05-06T03:02:30;100088.50;;;9.49;100.00
75136;BME280;63707;52.212;9.540;2023-05-06T03:04:57;100084.00;;;9.41;100.00
75136;BME280;63707;52.212;9.540;2023-05-06T03:07:22;100094.06;;;9.41;100.00
75136;BME280;63707;52.212;9.540;2023-05-06T03:09:48;100095.50;;;9.37;100.00
75136;BME280;63707;52.212;9.540;2023-05-06T03:12:13;100087.09;;;9.32;100.00
75136;BME280;63707;52.212;9.540;2023-05-06T03:14:39;100086.84;;;9.27;100.00
75136;BME280;63707;52.212;9.540;2023-05-06T03:17:04;100087.47;;;9.29;100.00
75136;BME280;63707;52.212;9.540;2023-05-06T03:19:30;100088.47;;;9.21;100.00
75136;BME280;63707;52.212;9.540;2023-05-06T03:21:56;100085.69;;;9.14;100.00
75136;BME280;63707;52.212;9.540;2023-05-06T03:24:22;100080.59;;;9.05;100.00
75136;BME280;63707;52.212;9.540;2023-05-06T03:26:47;100088.88;;;8.97;100.00
75136;BME280;63707;52.212;9.540;2023-05-06T03:29:13;100088.03;;;8.96;100.00
75136;BME280;63707;52.212;9.540;2023-05-06T03:31:38;100095.28;;;8.89;100.00
75136;BME280;63707;52.212;9.540;2023-05-06T03:34:04;100086.22;;;8.82;100.00
75136;BME280;63707;52.212;9.540;2023-05-06T03:36:29;100091.34;;;8.70;100.00
75136;BME280;63707;52.212;9.540;2023-05-06T03:38:57;100096.78;;;8.70;100.00
75136;BME280;63707;52.212;9.540;2023-05-06T03:41:23;100104.59;;;8.80;100.00
75136;BME280;63707;52.212;9.540;2023-05-06T03:43:49;100103.88;;;8.71;100.00
75136;BME280;63707;52.212;9.540;2023-05-06T03:46:14;100099.03;;;8.67;100.00
75136;BME280;63707;52.212;9.540;2023-05-06T03:48:40;100099.03;;;8.67;100.00
75136;BME280;63707;52.212;9.540;2023-05-06T03:51:05;100101.09;;;8.65;100.00
75136;BME280;63707;52.212;9.540;2023-05-06T03:53:31;100103.94;;;8.57;100.00
75136;BME280;63707;52.212;9.540;2023-05-06T03:55:58;100109.66;;;8.47;100.00
75136;BME280;63707;52.212;9.540;2023-05-06T03:58:23;100109.13;;;8.37;100.00
75136;BME280;63707;52.212;9.540;2023-05-06T04:00:49;100109.03;;;8.30;100.00
75136;BME280;63707;52.212;9.540;2023-05-06T04:03:14;100101.91;;;8.29;100.00
75136;BME280;63707;52.212;9.540;2023-05-06T04:05:40;100122.59;;;8.30;100.00
75136;BME280;63707;52.212;9.540;2023-05-06T04:08:05;100120.84;;;8.23;100.00
75136;BME280;63707;52.212;9.540;2023-05-06T04:10:31;100130.56;;;8.17;100.00
75136;BME280;63707;52.212;9.540;2023-05-06T04:12:58;100129.75;;;8.16;100.00
75136;BME280;63707;52.212;9.540;2023-05-06T04:15:23;100130.31;;;8.12;100.00
75136;BME280;63707;52.212;9.540;2023-05-06T04:17:49;100129.09;;;8.14;100.00
75136;BME280;63707;52.212;9.540;2023-05-06T04:20:14;100129.75;;;8.16;100.00
75136;BME280;63707;52.212;9.540;2023-05-06T04:22:40;100142.00;;;8.12;100.00
75136;BME280;63707;52.212;9.540;2023-05-06T04:25:07;100149.19;;;8.20;100.00
75136;BME280;63707;52.212;9.540;2023-05-06T04:27:32;100140.38;;;8.33;100.00
75136;BME280;63707;52.212;9.540;2023-05-06T04:29:59;100143.66;;;8.43;100.00
75136;BME280;63707;52.212;9.540;2023-05-06T04:32:25;100154.59;;;8.49;100.00
75136;BME280;63707;52.212;9.540;2023-05-06T04:34:50;100152.06;;;8.63;100.00
75136;BME280;63707;52.212;9.540;2023-05-06T04:37:16;100150.19;;;8.63;100.00
75136;BME280;63707;52.212;9.540;2023-05-06T04:39:41;100143.41;;;8.74;100.00
75136;BME280;63707;52.212;9.540;2023-05-06T04:42:11;100149.50;;;8.76;100.00
75136;BME280;63707;52.212;9.540;2023-05-06T04:44:37;100163.97;;;8.83;100.00
75136;BME280;63707;52.212;9.540;2023-05-06T04:47:04;100154.88;;;8.91;100.00
75136;BME280;63707;52.212;9.540;2023-05-06T04:49:29;100162.72;;;9.00;100.00
75136;BME280;63707;52.212;9.540;2023-05-06T04:51:55;100158.38;;;9.06;100.00
75136;BME280;63707;52.212;9.540;2023-05-06T04:54:21;100157.81;;;9.10;100.00
75136;BME280;63707;52.212;9.540;2023-05-06T04:56:46;100159.53;;;9.18;100.00
75136;BME280;63707;52.212;9.540;2023-05-06T04:59:12;100153.66;;;9.14;100.00
75136;BME280;63707;52.212;9.540;2023-05-06T05:01:37;100159.34;;;9.20;100.00
75136;BME280;63707;52.212;9.540;2023-05-06T05:04:04;100157.09;;;9.23;100.00
75136;BME280;63707;52.212;9.540;2023-05-06T05:06:30;100151.81;;;9.43;100.00
75136;BME280;63707;52.212;9.540;2023-05-06T05:08:56;100154.31;;;9.66;100.00
75136;BME280;63707;52.212;9.540;2023-05-06T05:11:21;100158.22;;;9.57;100.00
75136;BME280;63707;52.212;9.540;2023-05-06T05:13:47;100164.25;;;9.52;100.00
75136;BME280;63707;52.212;9.540;2023-05-06T05:16:12;100164.31;;;9.59;100.00
75136;BME280;63707;52.212;9.540;2023-05-06T05:18:38;100172.00;;;9.55;100.00
75136;BME280;63707;52.212;9.540;2023-05-06T05:21:05;100174.72;;;9.55;100.00
75136;BME280;63707;52.212;9.540;2023-05-06T05:23:30;100180.41;;;9.60;100.00
75136;BME280;63707;52.212;9.540;2023-05-06T05:25:56;100183.16;;;9.60;100.00
75136;BME280;63707;52.212;9.540;2023-05-06T05:28:21;100188.19;;;9.63;100.00
75136;BME280;63707;52.212;9.540;2023-05-06T05:30:47;100186.69;;;9.61;100.00
75136;BME280;63707;52.212;9.540;2023-05-06T05:33:12;100186.13;;;9.65;100.00
75136;BME280;63707;52.212;9.540;2023-05-06T05:35:38;100186.34;;;9.70;100.00
75136;BME280;63707;52.212;9.540;2023-05-06T05:38:05;100188.13;;;9.85;100.00
75136;BME280;63707;52.212;9.540;2023-05-06T05:40:30;100186.44;;;9.84;100.00
75136;BME280;63707;52.212;9.540;2023-05-06T05:42:56;100184.53;;;10.05;100.00
75136;BME280;63707;52.212;9.540;2023-05-06T05:45:21;100179.47;;;10.02;100.00
75136;BME280;63707;52.212;9.540;2023-05-06T05:47:46;100172.63;;;10.13;100.00
75136;BME280;63707;52.212;9.540;2023-05-06T05:50:12;100166.34;;;10.13;100.00
75136;BME280;63707;52.212;9.540;2023-05-06T05:52:37;100176.94;;;10.29;100.00
75136;BME280;63707;52.212;9.540;2023-05-06T05:55:05;100179.63;;;10.22;100.00
75136;BME280;63707;52.212;9.540;2023-05-06T05:57:31;100179.25;;;10.32;100.00
75136;BME280;63707;52.212;9.540;2023-05-06T05:59:56;100185.97;;;10.36;100.00
75136;BME280;63707;52.212;9.540;2023-05-06T06:02:22;100186.41;;;10.39;100.00
75136;BME280;63707;52.212;9.540;2023-05-06T06:04:48;100181.84;;;10.47;100.00
75136;BME280;63707;52.212;9.540;2023-05-06T06:07:13;100183.25;;;10.36;100.00
75136;BME280;63707;52.212;9.540;2023-05-06T06:09:39;100192.13;;;10.45;100.00
75136;BME280;63707;52.212;9.540;2023-05-06T06:12:07;100181.97;;;10.32;100.00
75136;BME280;63707;52.212;9.540;2023-05-06T06:14:32;100191.53;;;10.56;100.00
75136;BME280;63707;52.212;9.540;2023-05-06T06:16:58;100176.09;;;10.76;100.00
75136;BME280;63707;52.212;9.540;2023-05-06T06:19:23;100171.97;;;11.00;100.00
75136;BME280;63707;52.212;9.540;2023-05-06T06:21:49;100181.66;;;11.29;100.00
75136;BME280;63707;52.212;9.540;2023-05-06T06:24:14;100177.31;;;11.87;100.00
75136;BME280;63707;52.212;9.540;2023-05-06T06:26:40;100183.19;;;12.04;100.00
75136;BME280;63707;52.212;9.540;2023-05-06T06:29:07;100181.91;;;12.78;100.00
75136;BME280;63707;52.212;9.540;2023-05-06T06:31:32;100184.22;;;11.50;100.00
75136;BME280;63707;52.212;9.540;2023-05-06T06:33:58;100182.53;;;11.56;100.00
75136;BME280;63707;52.212;9.540;2023-05-06T06:36:24;100186.25;;;12.92;100.00
75136;BME280;63707;52.212;9.540;2023-05-06T06:38:50;100189.25;;;13.53;100.00
75136;BME280;63707;52.212;9.540;2023-05-06T06:41:15;100193.59;;;13.61;100.00
75136;BME280;63707;52.212;9.540;2023-05-06T06:43:41;100205.78;;;12.96;100.00
75136;BME280;63707;52.212;9.540;2023-05-06T06:46:07;100203.78;;;12.71;100.00
75136;BME280;63707;52.212;9.540;2023-05-06T06:48:33;100205.63;;;12.13;100.00
75136;BME280;63707;52.212;9.540;2023-05-06T06:50:58;100217.44;;;11.93;100.00
75136;BME280;63707;52.212;9.540;2023-05-06T06:53:24;100211.56;;;12.81;100.00
75136;BME280;63707;52.212;9.540;2023-05-06T06:55:49;100206.31;;;13.17;100.00
75136;BME280;63707;52.212;9.540;2023-05-06T06:58:15;100202.66;;;14.11;100.00
75136;BME280;63707;52.212;9.540;2023-05-06T07:00:40;100202.41;;;14.56;100.00
75136;BME280;63707;52.212;9.540;2023-05-06T07:03:07;100206.88;;;15.35;100.00
75136;BME280;63707;52.212;9.540;2023-05-06T07:05:33;100201.25;;;14.02;100.00
75136;BME280;63707;52.212;9.540;2023-05-06T07:07:58;100212.41;;;13.19;100.00
75136;BME280;63707;52.212;9.540;2023-05-06T07:10:24;100210.84;;;13.93;100.00
75136;BME280;63707;52.212;9.540;2023-05-06T07:12:50;100206.06;;;14.87;100.00
75136;BME280;63707;52.212;9.540;2023-05-06T07:15:15;100208.28;;;14.16;100.00
75136;BME280;63707;52.212;9.540;2023-05-06T07:17:41;100202.31;;;15.29;100.00
75136;BME280;63707;52.212;9.540;2023-05-06T07:20:09;100198.41;;;16.49;100.00
75136;BME280;63707;52.212;9.540;2023-05-06T07:22:34;100200.66;;;15.70;100.00
75136;BME280;63707;52.212;9.540;2023-05-06T07:25:00;100193.75;;;17.01;100.00
75136;BME280;63707;52.212;9.540;2023-05-06T07:27:26;100199.25;;;17.29;100.00
75136;BME280;63707;52.212;9.540;2023-05-06T07:29:54;100206.72;;;16.89;100.00
75136;BME280;63707;52.212;9.540;2023-05-06T07:32:20;100200.88;;;18.04;100.00
75136;BME280;63707;52.212;9.540;2023-05-06T07:34:46;100210.25;;;17.01;100.00
75136;BME280;63707;52.212;9.540;2023-05-06T07:37:13;100217.03;;;15.47;100.00
75136;BME280;63707;52.212;9.540;2023-05-06T07:39:38;100221.84;;;14.91;100.00
75136;BME280;63707;52.212;9.540;2023-05-06T07:42:04;100223.72;;;15.39;100.00
75136;BME280;63707;52.212;9.540;2023-05-06T07:44:31;100222.75;;;14.85;100.00
75136;BME280;63707;52.212;9.540;2023-05-06T07:46:57;100223.59;;;14.86;100.00
75136;BME280;63707;52.212;9.540;2023-05-06T07:49:23;100223.16;;;16.60;100.00
75136;BME280;63707;52.212;9.540;2023-05-06T07:51:49;100223.75;;;14.91;100.00
75136;BME280;63707;52.212;9.540;2023-05-06T07:54:16;100231.09;;;15.08;100.00
75136;BME280;63707;52.212;9.540;2023-05-06T07:56:42;100228.94;;;15.59;100.00
75136;BME280;63707;52.212;9.540;2023-05-06T07:59:08;100228.88;;;16.00;100.00
75136;BME280;63707;52.212;9.540;2023-05-06T08:01:34;100225.09;;;17.00;100.00
75136;BME280;63707;52.212;9.540;2023-05-06T08:03:59;100238.59;;;15.31;100.00
75136;BME280;63707;52.212;9.540;2023-05-06T08:06:25;100230.06;;;15.51;100.00
75136;BME280;63707;52.212;9.540;2023-05-06T08:08:51;100241.44;;;16.08;100.00
75136;BME280;63707;52.212;9.540;2023-05-06T08:11:18;100244.03;;;15.68;100.00
75136;BME280;63707;52.212;9.540;2023-05-06T08:13:43;100244.75;;;15.45;100.00
75136;BME280;63707;52.212;9.540;2023-05-06T08:16:09;100241.78;;;14.98;100.00
75136;BME280;63707;52.212;9.540;2023-05-06T08:18:34;100250.53;;;15.07;100.00
75136;BME280;63707;52.212;9.540;2023-05-06T08:21:00;100245.97;;;15.19;100.00
75136;BME280;63707;52.212;9.540;2023-05-06T08:23:25;100242.97;;;15.51;100.00
75136;BME280;63707;52.212;9.540;2023-05-06T08:25:51;100245.16;;;15.30;100.00
75136;BME280;63707;52.212;9.540;2023-05-06T08:28:18;100241.50;;;15.66;100.00
75136;BME280;63707;52.212;9.540;2023-05-06T08:30:44;100252.06;;;15.21;100.00
75136;BME280;63707;52.212;9.540;2023-05-06T08:33:12;100250.31;;;15.08;100.00
75136;BME280;63707;52.212;9.540;2023-05-06T08:35:38;100255.50;;;15.17;100.00
75136;BME280;63707;52.212;9.540;2023-05-06T08:38:03;100256.22;;;14.75;100.00
75136;BME280;63707;52.212;9.540;2023-05-06T08:40:29;100256.41;;;14.56;100.00
75136;BME280;63707;52.212;9.540;2023-05-06T08:42:58;100251.91;;;14.61;100.00
75136;BME280;63707;52.212;9.540;2023-05-06T08:45:25;100263.75;;;14.98;100.00
75136;BME280;63707;52.212;9.540;2023-05-06T08:47:51;100258.63;;;14.65;100.00
75136;BME280;63707;52.212;9.540;2023-05-06T08:50:17;100253.19;;;16.38;100.00
75136;BME280;63707;52.212;9.540;2023-05-06T08:52:42;100250.84;;;18.24;100.00
75136;BME280;63707;52.212;9.540;2023-05-06T08:55:08;100237.03;;;19.72;100.00
75136;BME280;63707;52.212;9.540;2023-05-06T08:57:34;100260.28;;;18.29;100.00
75136;BME280;63707;52.212;9.540;2023-05-06T09:00:01;100255.13;;;19.36;100.00
75136;BME280;63707;52.212;9.540;2023-05-06T09:02:28;100261.13;;;18.12;100.00
75136;BME280;63707;52.212;9.540;2023-05-06T09:04:54;100264.47;;;17.41;100.00
75136;BME280;63707;52.212;9.540;2023-05-06T09:07:21;100259.69;;;17.93;100.00
75136;BME280;63707;52.212;9.540;2023-05-06T09:09:47;100262.94;;;17.05;100.00
75136;BME280;63707;52.212;9.540;2023-05-06T09:12:12;100265.41;;;17.18;100.00
75136;BME280;63707;52.212;9.540;2023-05-06T09:14:39;100262.16;;;16.69;100.00
75136;BME280;63707;52.212;9.540;2023-05-06T09:17:16;100261.94;;;18.30;100.00
75136;BME280;63707;52.212;9.540;2023-05-06T09:19:49;100247.13;;;19.13;100.00
75136;BME280;63707;52.212;9.540;2023-05-06T09:22:15;100260.00;;;17.80;100.00
75136;BME280;63707;52.212;9.540;2023-05-06T09:24:41;100271.06;;;16.99;100.00
75136;BME280;63707;52.212;9.540;2023-05-06T09:27:06;100277.09;;;16.85;100.00
75136;BME280;63707;52.212;9.540;2023-05-06T09:29:32;100262.47;;;17.08;100.00
75136;BME280;63707;52.212;9.540;2023-05-06T09:32:03;100268.25;;;16.71;100.00
75136;BME280;63707;52.212;9.540;2023-05-06T09:34:30;100267.88;;;16.21;100.00
75136;BME280;63707;52.212;9.540;2023-05-06T09:36:56;100266.44;;;16.65;100.00
75136;BME280;63707;52.212;9.540;2023-05-06T09:39:24;100266.03;;;15.91;100.00
75136;BME280;63707;52.212;9.540;2023-05-06T09:41:50;100273.44;;;15.79;100.00
75136;BME280;63707;52.212;9.540;2023-05-06T09:44:16;100273.78;;;15.71;100.00
75136;BME280;63707;52.212;9.540;2023-05-06T09:46:41;100280.03;;;15.60;100.00
75136;BME280;63707;52.212;9.540;2023-05-06T09:49:07;100273.03;;;15.64;100.00
75136;BME280;63707;52.212;9.540;2023-05-06T09:51:33;100276.06;;;15.86;100.00
75136;BME280;63707;52.212;9.540;2023-05-06T09:54:00;100271.75;;;15.78;100.00
75136;BME280;63707;52.212;9.540;2023-05-06T09:56:25;100268.75;;;15.50;100.00
75136;BME280;63707;52.212;9.540;2023-05-06T09:58:53;100271.69;;;15.36;100.00
75136;BME280;63707;52.212;9.540;2023-05-06T10:01:20;100271.50;;;15.50;100.00
75136;BME280;63707;52.212;9.540;2023-05-06T10:03:46;100269.28;;;15.28;100.00
75136;BME280;63707;52.212;9.540;2023-05-06T10:06:13;100263.59;;;16.25;100.00
75136;BME280;63707;52.212;9.540;2023-05-06T10:08:40;100260.50;;;18.61;100.00
75136;BME280;63707;52.212;9.540;2023-05-06T10:11:08;100256.09;;;18.26;100.00
75136;BME280;63707;52.212;9.540;2023-05-06T10:13:35;100261.94;;;17.79;100.00
75136;BME280;63707;52.212;9.540;2023-05-06T10:16:04;100268.53;;;17.78;100.00
75136;BME280;63707;52.212;9.540;2023-05-06T10:18:32;100260.88;;;17.12;100.00
75136;BME280;63707;52.212;9.540;2023-05-06T10:20:59;100252.78;;;18.07;100.00
75136;BME280;63707;52.212;9.540;2023-05-06T10:23:30;100256.91;;;18.43;100.00
75136;BME280;63707;52.212;9.540;2023-05-06T10:26:05;100255.66;;;17.84;100.00
75136;BME280;63707;52.212;9.540;2023-05-06T10:28:34;100254.56;;;17.85;100.00
75136;BME280;63707;52.212;9.540;2023-05-06T10:31:04;100256.66;;;17.49;100.00
75136;BME280;63707;52.212;9.540;2023-05-06T10:33:33;100263.94;;;17.84;100.00
75136;BME280;63707;52.212;9.540;2023-05-06T10:36:10;100258.63;;;17.09;100.00
75136;BME280;63707;52.212;9.540;2023-05-06T10:38:40;100242.47;;;19.62;100.00
75136;BME280;63707;52.212;9.540;2023-05-06T10:41:07;100236.59;;;19.86;100.00
75136;BME280;63707;52.212;9.540;2023-05-06T10:43:38;100236.22;;;21.66;100.00
75136;BME280;63707;52.212;9.540;2023-05-06T10:46:07;100234.53;;;21.45;100.00
75136;BME280;63707;52.212;9.540;2023-05-06T10:48:34;100248.50;;;20.55;100.00
75136;BME280;63707;52.212;9.540;2023-05-06T10:51:21;100250.91;;;18.30;100.00
75136;BME280;63707;52.212;9.540;2023-05-06T10:53:58;100254.16;;;18.43;100.00
75136;BME280;63707;52.212;9.540;2023-05-06T10:56:24;100261.28;;;17.32;100.00
75136;BME280;63707;52.212;9.540;2023-05-06T10:58:53;100259.41;;;17.21;100.00
75136;BME280;63707;52.212;9.540;2023-05-06T11:01:20;100248.13;;;19.50;100.00
75136;BME280;63707;52.212;9.540;2023-05-06T11:03:46;100243.78;;;18.89;100.00
75136;BME280;63707;52.212;9.540;2023-05-06T11:06:11;100248.47;;;18.67;100.00
75136;BME280;63707;52.212;9.540;2023-05-06T11:08:37;100254.88;;;18.00;100.00
75136;BME280;63707;52.212;9.540;2023-05-06T11:14:12;100257.59;;;17.26;100.00
75136;BME280;63707;52.212;9.540;2023-05-06T11:16:47;100252.16;;;18.22;100.00
75136;BME280;63707;52.212;9.540;2023-05-06T11:19:18;100250.50;;;19.91;100.00
75136;BME280;63707;52.212;9.540;2023-05-06T11:21:44;100251.50;;;20.96;100.00
75136;BME280;63707;52.212;9.540;2023-05-06T11:24:10;100260.75;;;18.98;100.00
75136;BME280;63707;52.212;9.540;2023-05-06T11:26:39;100257.97;;;18.76;100.00
75136;BME280;63707;52.212;9.540;2023-05-06T11:29:05;100252.69;;;18.02;100.00
75136;BME280;63707;52.212;9.540;2023-05-06T11:31:40;100250.72;;;19.57;100.00
75136;BME280;63707;52.212;9.540;2023-05-06T11:34:06;100243.94;;;21.33;100.00
75136;BME280;63707;52.212;9.540;2023-05-06T11:36:33;100245.16;;;19.84;100.00
75136;BME280;63707;52.212;9.540;2023-05-06T11:39:04;100239.69;;;21.21;100.00
75136;BME280;63707;52.212;9.540;2023-05-06T11:41:30;100247.31;;;19.28;100.00
75136;BME280;63707;52.212;9.540;2023-05-06T11:43:56;100253.75;;;18.18;100.00
75136;BME280;63707;52.212;9.540;2023-05-06T11:46:22;100247.47;;;17.72;100.00
75136;BME280;63707;52.212;9.540;2023-05-06T11:48:50;100251.88;;;17.45;100.00
75136;BME280;63707;52.212;9.540;2023-05-06T11:51:20;100246.47;;;17.21;100.00
75136;BME280;63707;52.212;9.540;2023-05-06T11:53:46;100247.22;;;17.74;100.00
75136;BME280;63707;52.212;9.540;2023-05-06T11:56:11;100247.38;;;17.67;100.00
75136;BME280;63707;52.212;9.540;2023-05-06T11:58:36;100252.84;;;18.29;100.00
75136;BME280;63707;52.212;9.540;2023-05-06T12:01:03;100244.22;;;19.73;100.00
75136;BME280;63707;52.212;9.540;2023-05-06T12:03:29;100246.81;;;20.17;100.00
75136;BME280;63707;52.212;9.540;2023-05-06T12:05:57;100244.13;;;21.22;100.00
75136;BME280;63707;52.212;9.540;2023-05-06T12:08:26;100245.53;;;19.93;100.00
75136;BME280;63707;52.212;9.540;2023-05-06T12:10:53;100246.72;;;18.27;100.00
75136;BME280;63707;52.212;9.540;2023-05-06T12:13:19;100250.56;;;17.92;100.00
75136;BME280;63707;52.212;9.540;2023-05-06T12:15:45;100251.19;;;18.11;100.00
75136;BME280;63707;52.212;9.540;2023-05-06T12:18:12;100250.78;;;18.03;100.00
75136;BME280;63707;52.212;9.540;2023-05-06T12:20:38;100257.91;;;17.70;100.00
75136;BME280;63707;52.212;9.540;2023-05-06T12:23:05;100246.16;;;18.80;100.00
75136;BME280;63707;52.212;9.540;2023-05-06T12:25:31;100250.88;;;19.02;100.00
75136;BME280;63707;52.212;9.540;2023-05-06T12:27:56;100254.84;;;18.34;100.00
75136;BME280;63707;52.212;9.540;2023-05-06T12:30:28;100253.75;;;18.18;100.00
75136;BME280;63707;52.212;9.540;2023-05-06T12:32:55;100254.84;;;18.17;100.00
75136;BME280;63707;52.212;9.540;2023-05-06T12:35:25;100261.03;;;17.62;100.00
75136;BME280;63707;52.212;9.540;2023-05-06T12:37:51;100265.28;;;17.81;100.00
75136;BME280;63707;52.212;9.540;2023-05-06T12:40:18;100270.28;;;17.56;100.00
75136;BME280;63707;52.212;9.540;2023-05-06T12:42:52;100269.97;;;17.41;100.00